Marchand, Joseph
CanadaManBorn 19401986 – 2013Runner id 17160
Events
29
1986 – 2013
Best pace
12.760
km/h · 1986
Best finish
6th
of 139 · 1992
Distance raced
3,085
km · splits not double-counted
Pace over time
km/h · higher is faster
Pace over time: 29 races from 1986 to 2013, ranging from 2.29 to 13.70 kilometres per hour, where higher is faster. A second, age-graded series is drawn above it; the gap between the two is the age credit.
- Actual pace
- Age-graded pace
Results
| Date | Event | Distance | Result | Pace km/h | Placing |
|---|---|---|---|---|---|
| 1986-03-23 | 50mi | 7:36:55 h | 10.567 | 4/6 | |
| 1986-09-14 | Kelowna 50 Km raceCanada | 50km | 3:55:07 h | 12.760 | 5/7 |
| 1989-08-19 | Leadville Trail 100 MileUnited States | 100mi | 23:19:47 h | 6.898 | 24/139 |
| 1990-07-25 | 135mi | 33:02:00 h | 6.577 | 3/17 | |
| 1991-06-29 | Western States 100 Mile Endurance RunUnited States | 100mi | 23:48:54 h | 6.758 | 92/242 |
| 1991-07-13 | 30mi | 6:44:57 h | 7.154 | 25/89 | |
| 1992-06-27 | Western States 100 Mile Endurance RunUnited States | 100mi | 20:58:12 h | 7.675 | 13/230 |
| 1992-07-11 | 30mi | 6:31:03 h | 7.408 | 25/92 | |
| 1992-08-22 | Leadville Trail 100 MileUnited States | 100mi | 21:48:27 h | 7.380 | 6/139 |
| 1993-08-21 | Leadville Trail 100 MileUnited States | 100mi | 22:05:00 h | 7.288 | 12/136 |
| 1995-04-16 | 100km | 9:33:56 h | 10.454 | 2/2 | |
| 1995-08-21 | Leadville Trail 100 MileUnited States | 100mi | 24:32:52 h | 6.556 | 20/130 |
| 1995-11-11 | Gibson Ranch 24-hour ClassicUnited States | 24h | 193.121 km | 8.047 | 6/47 |
| 1996-08-24 | 100mi | 24:42:18 h | 6.514 | 31/157 | |
| 1997-04-05 | Diez Vista 50K Trail RunCanada | 50km | 7:13:47 h | 6.916 | 36/44 |
| 1997-06-28 | Western States 100 Mile Endurance RunUnited States | 100mi | 23:50:27 h | 6.750 | 99/257 |
| 1997-07-26 | White River 50 Mile Trail RunUnited States | 47.6mi | 9:46:31 h | 7.837 | 23/67 |
| 1998-08-22 | Leadville Trail 100 MileUnited States | 100mi | 28:43:56 h | 5.601 | 126/209 |
| 1999-12-31 | Across the Years, 24hUnited States | 24h | 154.800 km | 6.450 | 7/32 |
| 2005-12-31 | 24h | 114.500 km | 4.771 | 30/53 | |
| 2006-05-13 | 50km | 9:01:30 h | 5.540 | 18/19 | |
| 2006-06-24 | 50mi | 13:23:25 h | 6.009 | 6/8 | |
| 2007-04-07 | Diez Vista 50K Trail RunCanada | 50km | 9:23:10 h | 5.327 | 112/114 |
| 2007-07-14 | 30mi | 9:12:01 h | 5.248 | 178/193 | |
| 2007-09-15 | 50km | 8:43:17 h | 5.733 | 80/86 | |
| 2007-10-06 | Baker Lake 50K Ultra Trail RunUnited States | 50km | 8:17:05 h | 6.035 | 68/77 |
| 2009-04-18 | Diez Vista 50K Trail RunCanada | 50km | 7:55:52 h | 6.304 | 98/116 |
| 2009-05-16 | Watershed Preserve 12 Hr Trail RaceUnited States | 12h | 69.829 km | 5.819 | 33/66 |
| 2013-12-29 | 24h | 54.907 km | 2.288 | 156/176 |